sensor_id;sensor_type;location;lat;lon;timestamp;P1;durP1;ratioP1;P2;durP2;ratioP2
21777;SDS011;11050;52.222;20.916;2022-08-25T00:01:33;11.50;;;4.45;;
21777;SDS011;11050;52.222;20.916;2022-08-25T00:04:08;9.80;;;4.05;;
21777;SDS011;11050;52.222;20.916;2022-08-25T00:06:38;14.98;;;4.50;;
21777;SDS011;11050;52.222;20.916;2022-08-25T00:09:07;10.07;;;4.22;;
21777;SDS011;11050;52.222;20.916;2022-08-25T00:11:36;12.52;;;4.38;;
21777;SDS011;11050;52.222;20.916;2022-08-25T00:14:06;7.38;;;3.97;;
21777;SDS011;11050;52.222;20.916;2022-08-25T00:16:36;12.00;;;4.90;;
21777;SDS011;11050;52.222;20.916;2022-08-25T00:19:04;12.80;;;4.60;;
21777;SDS011;11050;52.222;20.916;2022-08-25T00:21:40;8.60;;;4.43;;
21777;SDS011;11050;52.222;20.916;2022-08-25T00:24:08;10.00;;;4.40;;
21777;SDS011;11050;52.222;20.916;2022-08-25T00:26:40;14.75;;;4.72;;
21777;SDS011;11050;52.222;20.916;2022-08-25T00:29:09;12.60;;;5.68;;
21777;SDS011;11050;52.222;20.916;2022-08-25T00:31:35;13.07;;;5.43;;
21777;SDS011;11050;52.222;20.916;2022-08-25T00:34:03;8.32;;;4.53;;
21777;SDS011;11050;52.222;20.916;2022-08-25T00:36:38;17.20;;;5.07;;
21777;SDS011;11050;52.222;20.916;2022-08-25T00:39:06;13.75;;;4.85;;
21777;SDS011;11050;52.222;20.916;2022-08-25T00:41:34;15.13;;;5.05;;
21777;SDS011;11050;52.222;20.916;2022-08-25T00:44:04;11.82;;;5.50;;
21777;SDS011;11050;52.222;20.916;2022-08-25T00:46:41;15.15;;;5.65;;
21777;SDS011;11050;52.222;20.916;2022-08-25T00:51:54;16.90;;;6.00;;
21777;SDS011;11050;52.222;20.916;2022-08-25T00:54:38;13.65;;;6.00;;
21777;SDS011;11050;52.222;20.916;2022-08-25T00:57:17;15.70;;;5.45;;
21777;SDS011;11050;52.222;20.916;2022-08-25T00:59:50;16.67;;;5.20;;
21777;SDS011;11050;52.222;20.916;2022-08-25T01:02:17;11.68;;;5.03;;
21777;SDS011;11050;52.222;20.916;2022-08-25T01:04:43;14.35;;;5.60;;
21777;SDS011;11050;52.222;20.916;2022-08-25T01:07:10;10.27;;;5.28;;
21777;SDS011;11050;52.222;20.916;2022-08-25T01:09:38;13.05;;;5.65;;
21777;SDS011;11050;52.222;20.916;2022-08-25T01:12:06;15.93;;;6.43;;
21777;SDS011;11050;52.222;20.916;2022-08-25T01:14:32;13.00;;;5.25;;
21777;SDS011;11050;52.222;20.916;2022-08-25T01:17:00;14.82;;;5.85;;
21777;SDS011;11050;52.222;20.916;2022-08-25T01:19:26;12.68;;;5.45;;
21777;SDS011;11050;52.222;20.916;2022-08-25T01:21:54;18.08;;;6.20;;
21777;SDS011;11050;52.222;20.916;2022-08-25T01:27:08;14.43;;;6.07;;
21777;SDS011;11050;52.222;20.916;2022-08-25T01:29:35;13.02;;;6.43;;
21777;SDS011;11050;52.222;20.916;2022-08-25T01:32:04;11.95;;;6.03;;
21777;SDS011;11050;52.222;20.916;2022-08-25T01:34:37;17.45;;;6.25;;
21777;SDS011;11050;52.222;20.916;2022-08-25T01:37:07;12.10;;;6.15;;
21777;SDS011;11050;52.222;20.916;2022-08-25T01:39:35;18.02;;;6.38;;
21777;SDS011;11050;52.222;20.916;2022-08-25T01:44:30;17.38;;;6.60;;
21777;SDS011;11050;52.222;20.916;2022-08-25T01:47:00;16.73;;;6.88;;
21777;SDS011;11050;52.222;20.916;2022-08-25T01:49:27;14.57;;;7.10;;
21777;SDS011;11050;52.222;20.916;2022-08-25T01:51:59;15.98;;;7.00;;
21777;SDS011;11050;52.222;20.916;2022-08-25T01:54:44;13.65;;;6.80;;
21777;SDS011;11050;52.222;20.916;2022-08-25T01:57:10;14.90;;;6.82;;
21777;SDS011;11050;52.222;20.916;2022-08-25T01:59:36;16.63;;;7.07;;
21777;SDS011;11050;52.222;20.916;2022-08-25T02:02:03;15.55;;;7.28;;
21777;SDS011;11050;52.222;20.916;2022-08-25T02:04:30;16.27;;;7.15;;
21777;SDS011;11050;52.222;20.916;2022-08-25T02:06:57;13.13;;;7.18;;
21777;SDS011;11050;52.222;20.916;2022-08-25T02:09:25;15.77;;;7.15;;
21777;SDS011;11050;52.222;20.916;2022-08-25T02:11:52;16.02;;;7.70;;
21777;SDS011;11050;52.222;20.916;2022-08-25T02:14:18;12.95;;;7.68;;
21777;SDS011;11050;52.222;20.916;2022-08-25T02:16:45;13.60;;;7.82;;
21777;SDS011;11050;52.222;20.916;2022-08-25T02:19:14;14.25;;;7.47;;
21777;SDS011;11050;52.222;20.916;2022-08-25T02:21:42;19.73;;;7.40;;
21777;SDS011;11050;52.222;20.916;2022-08-25T02:24:08;17.73;;;7.10;;
21777;SDS011;11050;52.222;20.916;2022-08-25T02:26:34;16.17;;;7.05;;
21777;SDS011;11050;52.222;20.916;2022-08-25T02:29:00;19.67;;;8.05;;
21777;SDS011;11050;52.222;20.916;2022-08-25T02:31:27;18.80;;;7.85;;
21777;SDS011;11050;52.222;20.916;2022-08-25T02:33:53;17.05;;;7.85;;
21777;SDS011;11050;52.222;20.916;2022-08-25T02:36:21;22.52;;;8.15;;
21777;SDS011;11050;52.222;20.916;2022-08-25T02:38:47;18.52;;;7.43;;
21777;SDS011;11050;52.222;20.916;2022-08-25T02:41:14;17.48;;;7.75;;
21777;SDS011;11050;52.222;20.916;2022-08-25T02:43:44;23.23;;;8.15;;
21777;SDS011;11050;52.222;20.916;2022-08-25T02:46:12;19.00;;;7.88;;
21777;SDS011;11050;52.222;20.916;2022-08-25T02:48:41;19.77;;;7.95;;
21777;SDS011;11050;52.222;20.916;2022-08-25T02:51:07;14.98;;;7.30;;
21777;SDS011;11050;52.222;20.916;2022-08-25T02:53:35;21.23;;;7.45;;
21777;SDS011;11050;52.222;20.916;2022-08-25T02:56:08;16.02;;;8.10;;
21777;SDS011;11050;52.222;20.916;2022-08-25T02:58:35;18.33;;;8.02;;
21777;SDS011;11050;52.222;20.916;2022-08-25T03:01:03;22.55;;;8.70;;
21777;SDS011;11050;52.222;20.916;2022-08-25T03:03:30;18.77;;;8.48;;
21777;SDS011;11050;52.222;20.916;2022-08-25T03:05:57;23.40;;;8.85;;
21777;SDS011;11050;52.222;20.916;2022-08-25T03:08:24;19.38;;;8.25;;
21777;SDS011;11050;52.222;20.916;2022-08-25T03:10:50;17.73;;;8.77;;
21777;SDS011;11050;52.222;20.916;2022-08-25T03:13:16;14.80;;;7.88;;
21777;SDS011;11050;52.222;20.916;2022-08-25T03:15:42;18.33;;;8.68;;
21777;SDS011;11050;52.222;20.916;2022-08-25T03:18:09;19.73;;;7.95;;
21777;SDS011;11050;52.222;20.916;2022-08-25T03:20:36;18.95;;;8.75;;
21777;SDS011;11050;52.222;20.916;2022-08-25T03:23:03;19.85;;;8.13;;
21777;SDS011;11050;52.222;20.916;2022-08-25T03:25:30;19.90;;;9.32;;
21777;SDS011;11050;52.222;20.916;2022-08-25T03:28:15;17.00;;;8.07;;
21777;SDS011;11050;52.222;20.916;2022-08-25T03:30:42;19.20;;;7.90;;
21777;SDS011;11050;52.222;20.916;2022-08-25T03:33:08;30.10;;;9.15;;
21777;SDS011;11050;52.222;20.916;2022-08-25T03:35:35;24.33;;;8.05;;
21777;SDS011;11050;52.222;20.916;2022-08-25T03:38:01;26.70;;;8.57;;
21777;SDS011;11050;52.222;20.916;2022-08-25T03:40:28;23.08;;;8.90;;
21777;SDS011;11050;52.222;20.916;2022-08-25T03:42:54;17.35;;;8.88;;
21777;SDS011;11050;52.222;20.916;2022-08-25T03:45:21;22.55;;;8.73;;
21777;SDS011;11050;52.222;20.916;2022-08-25T03:47:49;19.73;;;8.65;;
21777;SDS011;11050;52.222;20.916;2022-08-25T03:50:18;19.15;;;8.35;;
21777;SDS011;11050;52.222;20.916;2022-08-25T03:52:49;25.77;;;9.27;;
21777;SDS011;11050;52.222;20.916;2022-08-25T03:55:21;21.25;;;8.65;;
21777;SDS011;11050;52.222;20.916;2022-08-25T03:57:50;27.40;;;8.60;;
21777;SDS011;11050;52.222;20.916;2022-08-25T04:00:18;20.88;;;8.30;;
21777;SDS011;11050;52.222;20.916;2022-08-25T04:02:47;28.20;;;9.52;;
21777;SDS011;11050;52.222;20.916;2022-08-25T04:05:13;18.98;;;8.23;;
21777;SDS011;11050;52.222;20.916;2022-08-25T04:07:39;22.60;;;8.93;;
21777;SDS011;11050;52.222;20.916;2022-08-25T04:10:06;21.50;;;8.90;;
21777;SDS011;11050;52.222;20.916;2022-08-25T04:12:34;19.58;;;8.85;;
21777;SDS011;11050;52.222;20.916;2022-08-25T04:15:03;24.42;;;8.45;;
21777;SDS011;11050;52.222;20.916;2022-08-25T04:17:31;20.10;;;9.02;;
21777;SDS011;11050;52.222;20.916;2022-08-25T04:19:57;21.60;;;8.60;;
21777;SDS011;11050;52.222;20.916;2022-08-25T04:22:25;24.33;;;8.93;;
21777;SDS011;11050;52.222;20.916;2022-08-25T04:24:51;30.38;;;9.35;;
21777;SDS011;11050;52.222;20.916;2022-08-25T04:27:17;27.77;;;8.95;;
21777;SDS011;11050;52.222;20.916;2022-08-25T04:29:43;18.73;;;8.45;;
21777;SDS011;11050;52.222;20.916;2022-08-25T04:32:08;29.88;;;9.48;;
21777;SDS011;11050;52.222;20.916;2022-08-25T04:34:34;28.73;;;9.50;;
21777;SDS011;11050;52.222;20.916;2022-08-25T04:37:01;21.75;;;8.75;;
21777;SDS011;11050;52.222;20.916;2022-08-25T04:39:30;23.02;;;9.10;;
21777;SDS011;11050;52.222;20.916;2022-08-25T04:41:56;24.45;;;8.65;;
21777;SDS011;11050;52.222;20.916;2022-08-25T04:44:24;22.13;;;8.35;;
21777;SDS011;11050;52.222;20.916;2022-08-25T04:46:50;27.17;;;9.70;;
21777;SDS011;11050;52.222;20.916;2022-08-25T04:49:16;26.20;;;8.95;;
21777;SDS011;11050;52.222;20.916;2022-08-25T04:51:42;22.60;;;8.88;;
21777;SDS011;11050;52.222;20.916;2022-08-25T04:54:11;30.63;;;9.05;;
21777;SDS011;11050;52.222;20.916;2022-08-25T04:56:41;28.52;;;8.52;;
21777;SDS011;11050;52.222;20.916;2022-08-25T04:59:09;32.65;;;10.23;;
21777;SDS011;11050;52.222;20.916;2022-08-25T05:01:38;27.48;;;9.15;;
21777;SDS011;11050;52.222;20.916;2022-08-25T05:04:06;29.35;;;9.88;;
21777;SDS011;11050;52.222;20.916;2022-08-25T05:06:37;28.05;;;9.52;;
21777;SDS011;11050;52.222;20.916;2022-08-25T05:09:03;23.00;;;9.38;;
21777;SDS011;11050;52.222;20.916;2022-08-25T05:11:29;24.10;;;8.77;;
21777;SDS011;11050;52.222;20.916;2022-08-25T05:13:56;30.02;;;9.18;;
21777;SDS011;11050;52.222;20.916;2022-08-25T05:16:24;29.67;;;9.45;;
21777;SDS011;11050;52.222;20.916;2022-08-25T05:18:51;30.27;;;9.65;;
21777;SDS011;11050;52.222;20.916;2022-08-25T05:21:19;24.67;;;8.95;;
21777;SDS011;11050;52.222;20.916;2022-08-25T05:23:49;25.40;;;8.63;;
21777;SDS011;11050;52.222;20.916;2022-08-25T05:26:20;30.25;;;9.35;;
21777;SDS011;11050;52.222;20.916;2022-08-25T05:28:48;25.63;;;8.73;;
21777;SDS011;11050;52.222;20.916;2022-08-25T05:31:15;28.85;;;9.32;;
21777;SDS011;11050;52.222;20.916;2022-08-25T05:33:42;26.95;;;9.10;;
21777;SDS011;11050;52.222;20.916;2022-08-25T05:36:09;21.27;;;9.50;;
21777;SDS011;11050;52.222;20.916;2022-08-25T05:38:37;24.50;;;9.02;;
21777;SDS011;11050;52.222;20.916;2022-08-25T05:41:07;22.60;;;8.68;;
21777;SDS011;11050;52.222;20.916;2022-08-25T05:43:39;22.20;;;9.85;;
21777;SDS011;11050;52.222;20.916;2022-08-25T05:46:07;28.00;;;9.70;;
21777;SDS011;11050;52.222;20.916;2022-08-25T05:48:35;40.38;;;9.43;;
21777;SDS011;11050;52.222;20.916;2022-08-25T05:51:02;27.45;;;9.50;;
21777;SDS011;11050;52.222;20.916;2022-08-25T05:53:32;29.75;;;9.98;;
21777;SDS011;11050;52.222;20.916;2022-08-25T05:55:58;25.48;;;9.57;;
21777;SDS011;11050;52.222;20.916;2022-08-25T05:58:25;31.27;;;9.98;;
21777;SDS011;11050;52.222;20.916;2022-08-25T06:00:53;23.90;;;9.23;;
21777;SDS011;11050;52.222;20.916;2022-08-25T06:03:20;25.58;;;9.63;;
21777;SDS011;11050;52.222;20.916;2022-08-25T06:05:46;27.58;;;9.48;;
21777;SDS011;11050;52.222;20.916;2022-08-25T06:08:12;23.92;;;8.88;;
21777;SDS011;11050;52.222;20.916;2022-08-25T06:10:39;36.45;;;9.63;;
21777;SDS011;11050;52.222;20.916;2022-08-25T06:13:06;26.55;;;9.45;;
21777;SDS011;11050;52.222;20.916;2022-08-25T06:15:32;34.42;;;9.20;;
21777;SDS011;11050;52.222;20.916;2022-08-25T06:17:58;28.45;;;8.95;;
21777;SDS011;11050;52.222;20.916;2022-08-25T06:20:26;30.25;;;9.27;;
21777;SDS011;11050;52.222;20.916;2022-08-25T06:22:55;28.08;;;9.35;;
21777;SDS011;11050;52.222;20.916;2022-08-25T06:25:23;32.92;;;9.52;;
21777;SDS011;11050;52.222;20.916;2022-08-25T06:27:52;30.70;;;9.90;;
21777;SDS011;11050;52.222;20.916;2022-08-25T06:30:19;26.42;;;9.82;;
21777;SDS011;11050;52.222;20.916;2022-08-25T06:32:48;26.23;;;9.38;;
21777;SDS011;11050;52.222;20.916;2022-08-25T06:35:15;20.50;;;8.80;;
21777;SDS011;11050;52.222;20.916;2022-08-25T06:37:44;27.60;;;8.95;;
21777;SDS011;11050;52.222;20.916;2022-08-25T06:40:11;22.92;;;9.07;;
21777;SDS011;11050;52.222;20.916;2022-08-25T06:42:38;35.03;;;10.00;;
21777;SDS011;11050;52.222;20.916;2022-08-25T06:45:04;30.25;;;9.68;;
21777;SDS011;11050;52.222;20.916;2022-08-25T06:47:32;27.88;;;9.20;;
21777;SDS011;11050;52.222;20.916;2022-08-25T06:49:59;28.48;;;9.15;;
21777;SDS011;11050;52.222;20.916;2022-08-25T06:52:24;28.33;;;9.13;;
21777;SDS011;11050;52.222;20.916;2022-08-25T06:54:50;29.45;;;9.95;;
21777;SDS011;11050;52.222;20.916;2022-08-25T06:57:17;25.90;;;9.05;;
21777;SDS011;11050;52.222;20.916;2022-08-25T06:59:43;30.95;;;10.15;;
21777;SDS011;11050;52.222;20.916;2022-08-25T07:02:08;29.05;;;10.10;;
21777;SDS011;11050;52.222;20.916;2022-08-25T07:04:35;32.13;;;9.27;;
21777;SDS011;11050;52.222;20.916;2022-08-25T07:07:01;30.02;;;9.38;;
21777;SDS011;11050;52.222;20.916;2022-08-25T07:09:27;29.58;;;9.45;;
21777;SDS011;11050;52.222;20.916;2022-08-25T07:11:53;23.00;;;9.23;;
21777;SDS011;11050;52.222;20.916;2022-08-25T07:14:19;29.83;;;9.52;;
21777;SDS011;11050;52.222;20.916;2022-08-25T07:16:46;28.48;;;9.63;;
21777;SDS011;11050;52.222;20.916;2022-08-25T07:19:12;35.63;;;9.68;;
21777;SDS011;11050;52.222;20.916;2022-08-25T07:21:39;27.50;;;10.27;;
21777;SDS011;11050;52.222;20.916;2022-08-25T07:24:07;31.83;;;9.85;;
21777;SDS011;11050;52.222;20.916;2022-08-25T07:26:37;31.75;;;10.20;;
21777;SDS011;11050;52.222;20.916;2022-08-25T07:29:13;28.98;;;9.10;;
21777;SDS011;11050;52.222;20.916;2022-08-25T07:31:49;26.42;;;9.82;;
21777;SDS011;11050;52.222;20.916;2022-08-25T07:34:15;24.50;;;9.05;;
21777;SDS011;11050;52.222;20.916;2022-08-25T07:37:00;25.23;;;9.52;;
21777;SDS011;11050;52.222;20.916;2022-08-25T07:39:28;29.58;;;10.02;;
21777;SDS011;11050;52.222;20.916;2022-08-25T07:41:56;31.65;;;9.43;;
21777;SDS011;11050;52.222;20.916;2022-08-25T07:44:22;31.67;;;10.13;;
21777;SDS011;11050;52.222;20.916;2022-08-25T07:46:49;26.23;;;8.63;;
21777;SDS011;11050;52.222;20.916;2022-08-25T07:49:16;23.80;;;8.93;;
21777;SDS011;11050;52.222;20.916;2022-08-25T07:51:47;22.08;;;9.18;;
21777;SDS011;11050;52.222;20.916;2022-08-25T07:54:14;23.45;;;9.63;;
21777;SDS011;11050;52.222;20.916;2022-08-25T07:56:40;27.23;;;9.95;;
21777;SDS011;11050;52.222;20.916;2022-08-25T07:59:08;38.47;;;10.38;;
21777;SDS011;11050;52.222;20.916;2022-08-25T08:01:34;27.85;;;10.02;;
21777;SDS011;11050;52.222;20.916;2022-08-25T08:04:01;28.40;;;9.38;;
21777;SDS011;11050;52.222;20.916;2022-08-25T08:06:28;30.70;;;10.82;;
21777;SDS011;11050;52.222;20.916;2022-08-25T08:08:54;28.00;;;8.80;;
21777;SDS011;11050;52.222;20.916;2022-08-25T08:11:25;29.50;;;9.70;;
21777;SDS011;11050;52.222;20.916;2022-08-25T08:13:55;24.05;;;9.15;;
21777;SDS011;11050;52.222;20.916;2022-08-25T08:16:23;29.25;;;9.05;;
21777;SDS011;11050;52.222;20.916;2022-08-25T08:18:51;30.73;;;8.80;;
21777;SDS011;11050;52.222;20.916;2022-08-25T08:21:19;26.17;;;8.38;;
21777;SDS011;11050;52.222;20.916;2022-08-25T08:23:55;32.88;;;10.00;;
21777;SDS011;11050;52.222;20.916;2022-08-25T08:26:22;25.33;;;8.82;;
21777;SDS011;11050;52.222;20.916;2022-08-25T08:28:49;27.27;;;8.88;;
21777;SDS011;11050;52.222;20.916;2022-08-25T08:31:19;29.70;;;9.43;;
21777;SDS011;11050;52.222;20.916;2022-08-25T08:33:49;27.30;;;9.25;;
21777;SDS011;11050;52.222;20.916;2022-08-25T08:36:15;29.25;;;8.95;;
21777;SDS011;11050;52.222;20.916;2022-08-25T08:38:43;23.85;;;8.13;;
21777;SDS011;11050;52.222;20.916;2022-08-25T08:41:13;22.88;;;8.65;;
21777;SDS011;11050;52.222;20.916;2022-08-25T08:52:46;36.30;;;9.45;;
21777;SDS011;11050;52.222;20.916;2022-08-25T08:55:30;28.98;;;9.57;;
21777;SDS011;11050;52.222;20.916;2022-08-25T08:58:14;26.02;;;8.60;;
21777;SDS011;11050;52.222;20.916;2022-08-25T09:00:55;24.17;;;9.10;;
21777;SDS011;11050;52.222;20.916;2022-08-25T09:06:12;27.73;;;9.55;;
21777;SDS011;11050;52.222;20.916;2022-08-25T09:08:56;25.45;;;9.18;;
21777;SDS011;11050;52.222;20.916;2022-08-25T09:20:51;25.23;;;8.52;;
21777;SDS011;11050;52.222;20.916;2022-08-25T09:26:28;28.20;;;8.30;;
21777;SDS011;11050;52.222;20.916;2022-08-25T09:29:07;23.33;;;8.85;;
21777;SDS011;11050;52.222;20.916;2022-08-25T09:31:39;29.33;;;9.63;;
21777;SDS011;11050;52.222;20.916;2022-08-25T09:34:11;28.30;;;9.00;;
21777;SDS011;11050;52.222;20.916;2022-08-25T09:36:45;29.55;;;9.98;;
21777;SDS011;11050;52.222;20.916;2022-08-25T09:39:15;30.85;;;9.75;;
21777;SDS011;11050;52.222;20.916;2022-08-25T09:41:44;27.25;;;9.98;;
21777;SDS011;11050;52.222;20.916;2022-08-25T09:44:27;23.42;;;9.05;;
21777;SDS011;11050;52.222;20.916;2022-08-25T09:47:00;25.83;;;9.25;;
21777;SDS011;11050;52.222;20.916;2022-08-25T09:50:14;27.90;;;8.52;;
21777;SDS011;11050;52.222;20.916;2022-08-25T09:52:31;22.40;;;8.52;;
21777;SDS011;11050;52.222;20.916;2022-08-25T10:05:28;16.63;;;6.88;;
21777;SDS011;11050;52.222;20.916;2022-08-25T10:08:00;19.08;;;7.80;;
21777;SDS011;11050;52.222;20.916;2022-08-25T10:10:37;19.50;;;6.45;;
21777;SDS011;11050;52.222;20.916;2022-08-25T10:13:14;17.92;;;6.63;;
21777;SDS011;11050;52.222;20.916;2022-08-25T10:15:45;17.40;;;6.43;;
21777;SDS011;11050;52.222;20.916;2022-08-25T10:18:23;15.25;;;6.22;;
21777;SDS011;11050;52.222;20.916;2022-08-25T10:21:00;17.13;;;6.82;;
21777;SDS011;11050;52.222;20.916;2022-08-25T10:23:28;12.23;;;6.05;;
21777;SDS011;11050;52.222;20.916;2022-08-25T10:25:58;22.77;;;6.25;;
21777;SDS011;11050;52.222;20.916;2022-08-25T10:34:21;18.95;;;6.13;;
21777;SDS011;11050;52.222;20.916;2022-08-25T10:39:56;12.10;;;5.38;;
21777;SDS011;11050;52.222;20.916;2022-08-25T10:45:27;18.30;;;5.00;;
21777;SDS011;11050;52.222;20.916;2022-08-25T10:53:50;17.58;;;4.55;;
21777;SDS011;11050;52.222;20.916;2022-08-25T10:56:36;8.35;;;3.30;;
21777;SDS011;11050;52.222;20.916;2022-08-25T11:02:11;12.85;;;3.97;;
21777;SDS011;11050;52.222;20.916;2022-08-25T11:05:16;10.50;;;4.18;;
21777;SDS011;11050;52.222;20.916;2022-08-25T11:08:16;7.88;;;3.65;;
21777;SDS011;11050;52.222;20.916;2022-08-25T11:14:02;9.05;;;4.18;;
21777;SDS011;11050;52.222;20.916;2022-08-25T11:16:42;8.30;;;4.03;;
21777;SDS011;11050;52.222;20.916;2022-08-25T11:19:49;10.82;;;4.30;;
21777;SDS011;11050;52.222;20.916;2022-08-25T11:30:34;7.80;;;3.85;;
21777;SDS011;11050;52.222;20.916;2022-08-25T11:33:02;9.75;;;3.60;;
21777;SDS011;11050;52.222;20.916;2022-08-25T11:35:49;9.63;;;3.63;;
21777;SDS011;11050;52.222;20.916;2022-08-25T11:53:23;9.55;;;3.55;;
21777;SDS011;11050;52.222;20.916;2022-08-25T11:55:57;17.45;;;4.22;;
21777;SDS011;11050;52.222;20.916;2022-08-25T12:02:25;13.52;;;3.88;;
21777;SDS011;11050;52.222;20.916;2022-08-25T12:07:19;5.47;;;3.38;;
21777;SDS011;11050;52.222;20.916;2022-08-25T12:23:31;7.53;;;3.45;;
21777;SDS011;11050;52.222;20.916;2022-08-25T12:26:35;7.63;;;3.53;;
21777;SDS011;11050;52.222;20.916;2022-08-25T12:35:58;6.75;;;3.15;;
21777;SDS011;11050;52.222;20.916;2022-08-25T12:43:46;5.78;;;3.28;;
21777;SDS011;11050;52.222;20.916;2022-08-25T12:54:12;12.27;;;4.40;;
21777;SDS011;11050;52.222;20.916;2022-08-25T13:00:13;8.13;;;3.40;;
21777;SDS011;11050;52.222;20.916;2022-08-25T13:09:05;10.27;;;3.35;;
21777;SDS011;11050;52.222;20.916;2022-08-25T13:14:52;8.80;;;3.97;;
21777;SDS011;11050;52.222;20.916;2022-08-25T13:17:30;9.93;;;3.72;;
21777;SDS011;11050;52.222;20.916;2022-08-25T13:22:48;9.50;;;3.97;;
21777;SDS011;11050;52.222;20.916;2022-08-25T13:25:21;9.07;;;3.72;;
21777;SDS011;11050;52.222;20.916;2022-08-25T13:27:52;11.20;;;3.72;;
21777;SDS011;11050;52.222;20.916;2022-08-25T13:30:27;8.00;;;4.10;;
21777;SDS011;11050;52.222;20.916;2022-08-25T13:32:57;7.22;;;3.33;;
21777;SDS011;11050;52.222;20.916;2022-08-25T13:37:51;8.05;;;4.20;;
21777;SDS011;11050;52.222;20.916;2022-08-25T13:40:27;11.30;;;4.22;;
21777;SDS011;11050;52.222;20.916;2022-08-25T13:43:02;7.57;;;4.03;;
21777;SDS011;11050;52.222;20.916;2022-08-25T13:45:34;12.27;;;4.35;;
21777;SDS011;11050;52.222;20.916;2022-08-25T13:48:06;15.05;;;4.25;;
21777;SDS011;11050;52.222;20.916;2022-08-25T13:50:35;10.80;;;3.88;;
21777;SDS011;11050;52.222;20.916;2022-08-25T13:55:51;12.60;;;4.22;;
21777;SDS011;11050;52.222;20.916;2022-08-25T13:58:26;9.10;;;4.30;;
21777;SDS011;11050;52.222;20.916;2022-08-25T14:07:13;11.02;;;3.95;;
21777;SDS011;11050;52.222;20.916;2022-08-25T14:09:52;5.88;;;3.17;;
21777;SDS011;11050;52.222;20.916;2022-08-25T14:15:03;7.20;;;3.42;;
21777;SDS011;11050;52.222;20.916;2022-08-25T14:17:35;10.10;;;3.60;;
21777;SDS011;11050;52.222;20.916;2022-08-25T14:20:28;8.43;;;3.80;;
21777;SDS011;11050;52.222;20.916;2022-08-25T14:22:58;5.22;;;3.28;;
21777;SDS011;11050;52.222;20.916;2022-08-25T14:25:31;6.45;;;3.10;;
21777;SDS011;11050;52.222;20.916;2022-08-25T14:28:03;6.13;;;3.40;;
21777;SDS011;11050;52.222;20.916;2022-08-25T14:30:34;5.43;;;3.15;;
21777;SDS011;11050;52.222;20.916;2022-08-25T14:33:05;8.30;;;4.15;;
21777;SDS011;11050;52.222;20.916;2022-08-25T14:35:32;7.97;;;3.78;;
21777;SDS011;11050;52.222;20.916;2022-08-25T14:37:58;8.95;;;4.00;;
21777;SDS011;11050;52.222;20.916;2022-08-25T14:40:33;4.50;;;3.42;;
21777;SDS011;11050;52.222;20.916;2022-08-25T14:42:59;8.07;;;3.58;;
21777;SDS011;11050;52.222;20.916;2022-08-25T14:45:25;7.18;;;3.63;;
21777;SDS011;11050;52.222;20.916;2022-08-25T14:47:51;6.85;;;3.30;;
21777;SDS011;11050;52.222;20.916;2022-08-25T14:50:18;10.30;;;3.67;;
21777;SDS011;11050;52.222;20.916;2022-08-25T14:52:44;7.68;;;3.35;;
21777;SDS011;11050;52.222;20.916;2022-08-25T14:55:10;6.90;;;3.40;;
21777;SDS011;11050;52.222;20.916;2022-08-25T14:57:37;8.23;;;3.60;;
21777;SDS011;11050;52.222;20.916;2022-08-25T15:00:03;13.30;;;3.40;;
21777;SDS011;11050;52.222;20.916;2022-08-25T15:02:32;7.35;;;3.50;;
21777;SDS011;11050;52.222;20.916;2022-08-25T15:05:05;11.70;;;3.60;;
21777;SDS011;11050;52.222;20.916;2022-08-25T15:07:36;10.18;;;3.95;;
21777;SDS011;11050;52.222;20.916;2022-08-25T15:10:21;10.65;;;3.50;;
21777;SDS011;11050;52.222;20.916;2022-08-25T15:12:47;9.57;;;3.35;;
21777;SDS011;11050;52.222;20.916;2022-08-25T15:15:14;8.05;;;3.40;;
21777;SDS011;11050;52.222;20.916;2022-08-25T15:17:41;5.28;;;3.10;;
21777;SDS011;11050;52.222;20.916;2022-08-25T15:20:09;6.75;;;3.20;;
21777;SDS011;11050;52.222;20.916;2022-08-25T15:22:35;4.72;;;3.25;;
21777;SDS011;11050;52.222;20.916;2022-08-25T15:25:01;7.32;;;3.33;;
21777;SDS011;11050;52.222;20.916;2022-08-25T15:27:27;9.75;;;3.78;;
21777;SDS011;11050;52.222;20.916;2022-08-25T15:29:53;10.07;;;3.20;;
21777;SDS011;11050;52.222;20.916;2022-08-25T15:32:18;5.78;;;2.95;;
21777;SDS011;11050;52.222;20.916;2022-08-25T15:34:44;6.47;;;3.60;;
21777;SDS011;11050;52.222;20.916;2022-08-25T15:37:11;6.55;;;2.95;;
21777;SDS011;11050;52.222;20.916;2022-08-25T15:39:40;7.00;;;3.72;;
21777;SDS011;11050;52.222;20.916;2022-08-25T15:42:08;7.78;;;3.00;;
21777;SDS011;11050;52.222;20.916;2022-08-25T15:44:40;5.10;;;3.28;;
21777;SDS011;11050;52.222;20.916;2022-08-25T15:47:08;9.02;;;3.15;;
21777;SDS011;11050;52.222;20.916;2022-08-25T15:49:34;9.52;;;2.75;;
21777;SDS011;11050;52.222;20.916;2022-08-25T15:52:00;8.57;;;3.20;;
21777;SDS011;11050;52.222;20.916;2022-08-25T15:54:27;6.75;;;3.10;;
21777;SDS011;11050;52.222;20.916;2022-08-25T15:56:54;10.75;;;3.50;;
21777;SDS011;11050;52.222;20.916;2022-08-25T15:59:22;10.32;;;3.40;;
21777;SDS011;11050;52.222;20.916;2022-08-25T16:01:50;7.30;;;3.20;;
21777;SDS011;11050;52.222;20.916;2022-08-25T16:04:17;9.15;;;2.92;;
21777;SDS011;11050;52.222;20.916;2022-08-25T16:06:45;6.07;;;3.03;;
21777;SDS011;11050;52.222;20.916;2022-08-25T16:09:11;4.55;;;2.67;;
21777;SDS011;11050;52.222;20.916;2022-08-25T16:11:37;8.80;;;3.10;;
21777;SDS011;11050;52.222;20.916;2022-08-25T16:14:03;5.30;;;2.90;;
21777;SDS011;11050;52.222;20.916;2022-08-25T16:16:30;6.47;;;3.20;;
21777;SDS011;11050;52.222;20.916;2022-08-25T16:18:57;12.98;;;3.25;;
21777;SDS011;11050;52.222;20.916;2022-08-25T16:21:25;9.48;;;3.25;;
21777;SDS011;11050;52.222;20.916;2022-08-25T16:24:00;8.90;;;3.70;;
21777;SDS011;11050;52.222;20.916;2022-08-25T16:26:29;10.18;;;3.25;;
21777;SDS011;11050;52.222;20.916;2022-08-25T16:28:56;6.53;;;3.35;;
21777;SDS011;11050;52.222;20.916;2022-08-25T16:31:22;9.50;;;3.00;;
21777;SDS011;11050;52.222;20.916;2022-08-25T16:33:48;4.43;;;3.10;;
21777;SDS011;11050;52.222;20.916;2022-08-25T16:36:16;7.38;;;2.92;;
21777;SDS011;11050;52.222;20.916;2022-08-25T16:38:46;4.03;;;2.47;;
21777;SDS011;11050;52.222;20.916;2022-08-25T16:41:14;7.15;;;3.05;;
21777;SDS011;11050;52.222;20.916;2022-08-25T16:43:47;10.43;;;3.20;;
21777;SDS011;11050;52.222;20.916;2022-08-25T16:46:17;5.18;;;3.10;;
21777;SDS011;11050;52.222;20.916;2022-08-25T16:48:45;6.10;;;3.22;;
21777;SDS011;11050;52.222;20.916;2022-08-25T16:51:13;6.65;;;2.55;;
21777;SDS011;11050;52.222;20.916;2022-08-25T16:53:45;7.07;;;2.88;;
21777;SDS011;11050;52.222;20.916;2022-08-25T16:56:31;7.28;;;3.30;;
21777;SDS011;11050;52.222;20.916;2022-08-25T16:59:00;7.05;;;2.65;;
21777;SDS011;11050;52.222;20.916;2022-08-25T17:01:28;10.02;;;3.53;;
21777;SDS011;11050;52.222;20.916;2022-08-25T17:03:58;9.10;;;3.13;;
21777;SDS011;11050;52.222;20.916;2022-08-25T17:06:25;13.40;;;2.83;;
21777;SDS011;11050;52.222;20.916;2022-08-25T17:08:53;6.45;;;2.80;;
21777;SDS011;11050;52.222;20.916;2022-08-25T17:11:30;6.70;;;3.22;;
21777;SDS011;11050;52.222;20.916;2022-08-25T17:14:04;9.25;;;3.08;;
21777;SDS011;11050;52.222;20.916;2022-08-25T17:16:31;8.10;;;2.95;;
21777;SDS011;11050;52.222;20.916;2022-08-25T17:18:58;8.02;;;2.83;;